Time;durP1;ratioP1;P1;durP2;ratioP2;P2;SDS_P1;SDS_P2;PMS_P1;PMS_P2;Temp;Humidity;BMP_temperature;BMP_pressure;BME280_temperature;BME280_humidity;BME280_pressure;Samples;Min_cycle;Max_cycle;Signal;HPM_P1;HPM_P2
2021/06/21 00:02:04;;;;;;;23.47;4.12;;;;;;;19.22;100.00;100353.89;1732470;81;37721;-60
2021/06/21 00:04:30;;;;;;;27.60;4.12;;;;;;;19.22;100.00;100349.81;1733796;81;21052;-59
2021/06/21 00:06:58;;;;;;;21.97;3.40;;;;;;;19.21;100.00;100356.23;1748352;81;21050;-60
2021/06/21 00:09:24;;;;;;;26.20;3.98;;;;;;;19.19;100.00;100360.42;1731930;81;20969;-60
2021/06/21 00:11:53;;;;;;;34.67;5.03;;;;;;;19.14;100.00;100358.09;1734167;81;21520;-59
2021/06/21 00:14:19;;;;;;;24.57;4.60;;;;;;;19.12;100.00;100364.61;1733180;81;20902;-60
2021/06/21 00:16:46;;;;;;;22.70;4.05;;;;;;;19.10;100.00;100355.72;1749975;80;21005;-60
2021/06/21 00:19:13;;;;;;;32.00;4.85;;;;;;;19.08;100.00;100363.97;1731530;81;20966;-60
2021/06/21 00:21:41;;;;;;;31.73;4.80;;;;;;;19.03;100.00;100352.60;1741515;81;21024;-60
2021/06/21 00:24:08;;;;;;;39.78;5.62;;;;;;;18.99;100.00;100348.39;1746967;81;21868;-60
2021/06/21 00:26:36;;;;;;;32.03;5.12;;;;;;;18.99;100.00;100345.67;1748517;80;20897;-61
2021/06/21 00:29:03;;;;;;;28.12;5.12;;;;;;;18.98;100.00;100345.27;1748341;81;20885;-60
2021/06/21 00:31:31;;;;;;;33.13;5.85;;;;;;;18.97;100.00;100342.19;1750395;80;20987;-60
2021/06/21 00:33:57;;;;;;;38.63;7.15;;;;;;;18.97;100.00;100344.39;1747084;80;21084;-60
2021/06/21 00:36:24;;;;;;;45.17;6.37;;;;;;;18.97;100.00;100340.83;1746183;81;21404;-61
2021/06/21 00:38:50;;;;;;;27.55;4.75;;;;;;;18.99;100.00;100348.39;1750572;81;21001;-60
2021/06/21 00:41:19;;;;;;;26.75;4.95;;;;;;;18.98;100.00;100350.23;1743242;80;21520;-60
2021/06/21 00:43:45;;;;;;;36.23;6.47;;;;;;;18.96;100.00;100336.38;1735195;81;21016;-61
2021/06/21 00:46:14;;;;;;;35.43;5.65;;;;;;;18.95;100.00;100340.08;1740451;80;20973;-60
2021/06/21 00:48:41;;;;;;;37.65;6.85;;;;;;;18.93;100.00;100336.63;1744961;81;21077;-61
2021/06/21 00:51:09;;;;;;;35.52;6.37;;;;;;;18.94;100.00;100339.71;1711936;82;21565;-61
2021/06/21 00:53:36;;;;;;;40.92;6.45;;;;;;;18.95;100.00;100338.72;1710782;82;21637;-60
2021/06/21 00:56:03;;;;;;;34.33;5.90;;;;;;;18.96;100.00;100337.73;1714112;82;21604;-61
2021/06/21 00:58:30;;;;;;;32.10;5.53;;;;;;;18.97;100.00;100339.47;1743389;81;21079;-61
2021/06/21 01:00:56;;;;;;;36.08;6.17;;;;;;;18.97;100.00;100338.11;1730996;81;21422;-61
2021/06/21 01:03:23;;;;;;;30.05;6.10;;;;;;;18.96;100.00;100335.02;1750103;81;20930;-59
2021/06/21 01:05:49;;;;;;;42.20;6.65;;;;;;;18.97;100.00;100332.17;1707122;82;118899;-60
2021/06/21 01:08:16;;;;;;;37.03;5.67;;;;;;;19.00;100.00;100336.55;1709762;82;20905;-60
2021/06/21 01:10:45;;;;;;;40.65;6.75;;;;;;;19.00;100.00;100331.95;1750497;80;21008;-60
2021/06/21 01:13:54;;;;;;;30.70;6.22;;;;;;;18.99;100.00;100332.09;1738060;81;21081;-61
2021/06/21 01:16:47;;;;;;;35.68;5.90;;;;;;;19.00;100.00;100339.26;1703507;82;20976;-60
2021/06/21 01:19:53;;;;;;;26.17;5.80;;;;;;;19.01;100.00;100340.98;1727435;81;21334;-61
2021/06/21 01:22:40;;;;;;;36.03;5.87;;;;;;;19.01;100.00;100335.56;1699364;81;21186;-61
2021/06/21 01:25:40;;;;;;;36.80;5.55;;;;;;;19.01;100.00;100336.92;1770661;79;21071;-61
2021/06/21 01:28:57;;;;;;;22.90;5.78;;;;;;;19.01;100.00;100331.48;1754258;80;21761;-61
2021/06/21 01:31:20;;;;;;;40.43;6.45;;;;;;;19.02;100.00;100338.17;1744821;81;21416;-61
2021/06/21 01:33:47;;;;;;;35.43;6.05;;;;;;;19.02;100.00;100332.73;1756622;80;21424;-61
2021/06/21 01:36:16;;;;;;;35.17;5.92;;;;;;;19.02;100.00;100337.29;1770440;79;21439;-61
2021/06/21 01:38:49;;;;;;;28.92;5.67;;;;;;;19.04;100.00;100342.11;1744197;81;21064;-61
2021/06/21 01:41:30;;;;;;;30.37;5.92;;;;;;;19.04;100.00;100339.39;1751223;80;21512;-61
2021/06/21 01:43:57;;;;;;;32.10;5.22;;;;;;;19.02;100.00;100346.32;1749258;80;21863;-61
2021/06/21 01:46:28;;;;;;;30.25;6.22;;;;;;;18.99;100.00;100355.19;1752419;80;21519;-61
2021/06/21 01:48:58;;;;;;;24.52;5.70;;;;;;;18.97;100.00;100346.26;1738148;81;21553;-61
2021/06/21 01:51:25;;;;;;;38.70;6.87;;;;;;;18.96;100.00;100351.32;1749264;80;21647;-61
2021/06/21 01:53:53;;;;;;;31.70;6.62;;;;;;;18.95;100.00;100341.44;1715242;81;21632;-61
2021/06/21 01:56:34;;;;;;;43.13;7.03;;;;;;;18.96;100.00;100345.89;1768005;79;21015;-61
2021/06/21 01:59:02;;;;;;;25.65;5.45;;;;;;;18.95;100.00;100346.88;1738294;81;20903;-60
2021/06/21 02:01:29;;;;;;;27.15;5.47;;;;;;;18.97;100.00;100348.98;1765727;79;34449;-60
2021/06/21 02:03:56;;;;;;;28.57;6.10;;;;;;;18.96;100.00;100344.02;1778108;79;21294;-61
2021/06/21 02:06:28;;;;;;;39.60;6.35;;;;;;;18.96;100.00;100348.61;1724965;81;21027;-61
2021/06/21 02:08:55;;;;;;;29.02;5.72;;;;;;;18.97;100.00;100360.69;1712595;81;21027;-60
2021/06/21 02:11:24;;;;;;;28.47;5.72;;;;;;;18.96;100.00;100371.69;1771094;79;20996;-61
2021/06/21 02:13:51;;;;;;;32.38;5.97;;;;;;;18.95;100.00;100369.45;1744995;80;21877;-61
2021/06/21 02:16:18;;;;;;;28.38;5.97;;;;;;;18.96;100.00;100372.54;1774510;78;21058;-61
2021/06/21 02:18:47;;;;;;;24.02;5.37;;;;;;;18.96;100.00;100370.33;1768919;79;21099;-61
2021/06/21 02:21:14;;;;;;;32.98;6.65;;;;;;;18.95;100.00;100373.53;1748568;79;21587;-60
2021/06/21 02:23:40;;;;;;;29.42;6.00;;;;;;;18.97;100.00;100385.14;1768647;79;20972;-61
2021/06/21 02:26:07;;;;;;;35.90;6.00;;;;;;;18.97;100.00;100386.50;1762337;79;21247;-61
2021/06/21 02:28:34;;;;;;;28.92;6.33;;;;;;;18.98;100.00;100382.83;1773137;79;20885;-61
2021/06/21 02:31:04;;;;;;;35.08;6.70;;;;;;;19.01;100.00;100387.17;1771574;79;21262;-60
2021/06/21 02:33:31;;;;;;;29.82;5.92;;;;;;;19.09;100.00;100397.45;1770144;79;21106;-60
2021/06/21 02:35:59;;;;;;;28.20;5.67;;;;;;;19.17;100.00;100392.28;1770215;79;20975;-60
2021/06/21 02:38:25;;;;;;;22.45;4.97;;;;;;;19.24;100.00;100398.12;1741963;80;21087;-59
2021/06/21 02:40:52;;;;;;;28.47;6.22;;;;;;;19.31;100.00;100400.25;1738991;81;21051;-60
2021/06/21 02:43:18;;;;;;;29.55;5.75;;;;;;;19.36;100.00;100408.05;1740203;80;21935;-60
2021/06/21 02:45:45;;;;;;;26.82;5.30;;;;;;;19.40;100.00;100417.70;1728996;81;21040;-60
2021/06/21 02:48:11;;;;;;;28.60;5.67;;;;;;;19.41;100.00;100420.78;1767034;79;21429;-60
2021/06/21 02:50:43;;;;;;;17.98;5.10;;;;;;;19.41;100.00;100413.98;1770161;79;20972;-60
2021/06/21 02:53:42;;;;;;;21.97;5.80;;;;;;;19.40;100.00;100409.54;1772933;79;21062;-60
2021/06/21 02:56:33;;;;;;;17.80;5.67;;;;;;;19.38;100.00;100407.44;1776639;79;21783;-60
2021/06/21 02:59:04;;;;;;;30.05;6.28;;;;;;;19.38;100.00;100407.44;1760540;80;21050;-60
2021/06/21 03:01:31;;;;;;;18.75;6.72;;;;;;;19.30;100.00;100406.67;1764030;79;43570;-60
2021/06/21 03:03:58;;;;;;;22.30;5.45;;;;;;;19.27;100.00;100408.27;1768572;79;21408;-60
2021/06/21 03:06:25;;;;;;;21.48;5.45;;;;;;;19.27;100.00;100406.03;1769374;79;20996;-60
2021/06/21 03:08:53;;;;;;;26.85;6.35;;;;;;;19.28;100.00;100402.33;1774012;79;20931;-59
2021/06/21 03:11:20;;;;;;;21.60;5.55;;;;;;;19.26;100.00;100400.22;1743653;80;20877;-60
2021/06/21 03:13:47;;;;;;;21.50;4.30;;;;;;;19.23;100.00;100401.83;1771658;79;21023;-60
2021/06/21 03:16:15;;;;;;;31.82;3.42;;;;;;;19.23;100.00;100405.90;1745280;81;21492;-55
2021/06/21 03:18:42;;;;;;;27.48;3.90;;;;;;;19.21;100.00;100407.88;1770763;79;21417;-56
2021/06/21 03:21:09;;;;;;;13.38;5.10;;;;;;;19.20;100.00;100404.78;1733633;81;21148;-55
2021/06/21 03:23:36;;;;;;;16.35;4.20;;;;;;;19.23;100.00;100405.42;1767467;79;20935;-55
2021/06/21 03:26:04;;;;;;;43.68;3.80;;;;;;;19.33;100.00;100397.39;1751095;80;22085;-55
2021/06/21 03:28:31;;;;;;;29.45;3.95;;;;;;;19.40;100.00;100408.18;1751847;80;21069;-56
2021/06/21 03:31:02;;;;;;;48.23;4.20;;;;;;;19.43;100.00;100402.98;1743787;81;20929;-59
2021/06/21 03:33:29;;;;;;;19.45;3.65;;;;;;;19.49;100.00;100412.52;1737104;80;21104;-56
2021/06/21 03:35:56;;;;;;;23.38;3.52;;;;;;;19.52;100.00;100409.55;1748950;80;21090;-56
2021/06/21 03:38:26;;;;;;;33.42;4.33;;;;;;;19.55;100.00;100404.75;1756068;80;20970;-56
2021/06/21 03:41:00;;;;;;;20.90;4.83;;;;;;;19.64;100.00;100409.08;1769552;79;20905;-56
2021/06/21 03:43:27;;;;;;;9.30;4.05;;;;;;;19.74;100.00;100408.73;1762238;80;20951;-56
2021/06/21 03:45:56;;;;;;;9.13;3.72;;;;;;;19.83;100.00;100412.07;1757934;79;21704;-56
2021/06/21 03:48:22;;;;;;;16.55;4.28;;;;;;;19.87;100.00;100414.91;1761683;79;21007;-56
2021/06/21 03:50:49;;;;;;;10.18;4.80;;;;;;;19.90;100.00;100421.50;1762264;80;20909;-56
2021/06/21 03:53:16;;;;;;;6.50;4.20;;;;;;;19.93;100.00;100429.92;1766112;80;21016;-56
2021/06/21 03:55:43;;;;;;;13.83;5.13;;;;;;;19.95;100.00;100427.94;1762626;80;20998;-56
2021/06/21 03:58:09;;;;;;;10.98;4.30;;;;;;;19.97;100.00;100432.77;1766357;80;21092;-55
2021/06/21 04:00:36;;;;;;;8.80;5.22;;;;;;;20.06;100.00;100434.39;1761791;80;20991;-55
2021/06/21 04:03:06;;;;;;;9.30;5.40;;;;;;;20.12;100.00;100426.61;1758408;79;21090;-56
2021/06/21 04:05:32;;;;;;;11.73;4.95;;;;;;;20.23;100.00;100439.34;1773112;79;21066;-56
2021/06/21 04:08:00;;;;;;;9.33;4.95;;;;;;;20.35;100.00;100437.96;1755256;80;21037;-56
2021/06/21 04:10:26;;;;;;;9.50;5.70;;;;;;;20.49;100.00;100439.07;1761227;79;21178;-56
2021/06/21 04:12:53;;;;;;;10.55;5.50;;;;;;;20.62;100.00;100443.01;1762553;79;21370;-56
2021/06/21 04:15:28;;;;;;;11.45;4.20;;;;;;;20.74;100.00;100447.94;1772332;80;20976;-57
2021/06/21 04:17:51;;;;;;;11.43;3.62;;;;;;;20.83;100.00;100448.55;1763498;80;21478;-56
2021/06/21 04:20:18;;;;;;;8.78;3.37;;;;;;;20.92;100.00;100450.16;1728761;81;21586;-56
2021/06/21 04:22:45;;;;;;;6.17;3.62;;;;;;;20.98;100.00;100448.27;1761517;80;22074;-56
2021/06/21 04:25:13;;;;;;;8.18;3.45;;;;;;;21.11;100.00;100465.33;1776041;79;21864;-56
2021/06/21 04:27:40;;;;;;;14.83;5.72;;;;;;;21.22;100.00;100463.54;1763341;80;20912;-56
2021/06/21 04:30:11;;;;;;;21.60;7.75;;;;;;;21.31;100.00;100458.66;1760591;80;21005;-56
2021/06/21 04:32:38;;;;;;;22.65;8.28;;;;;;;21.43;100.00;100467.16;1760227;80;21363;-56
2021/06/21 04:35:08;;;;;;;24.25;8.10;;;;;;;21.50;100.00;100468.88;1770206;79;21489;-56
2021/06/21 04:37:34;;;;;;;24.27;8.93;;;;;;;21.57;100.00;100470.06;1744214;80;20916;-56
2021/06/21 04:40:02;;;;;;;20.30;8.73;;;;;;;21.62;100.00;100477.86;1764263;80;21556;-56
2021/06/21 04:42:29;;;;;;;16.48;7.37;;;;;;;21.68;100.00;100478.71;1762248;80;22430;-56
2021/06/21 04:44:55;;;;;;;17.87;8.23;;;;;;;21.77;100.00;100481.63;1775847;79;20995;-56
2021/06/21 04:47:24;;;;;;;25.48;9.53;;;;;;;21.88;100.00;100484.30;1757211;80;21493;-56
2021/06/21 04:49:52;;;;;;;35.35;11.60;;;;;;;22.04;100.00;100486.05;1770764;80;21620;-56
2021/06/21 04:52:20;;;;;;;44.93;12.28;;;;;;;22.16;100.00;100483.23;1768522;80;20943;-56
2021/06/21 04:54:48;;;;;;;36.38;12.15;;;;;;;22.27;100.00;100483.16;1772832;80;20985;-56
2021/06/21 04:57:14;;;;;;;29.95;11.80;;;;;;;22.40;100.00;100477.94;1761572;80;20948;-56
2021/06/21 04:59:41;;;;;;;30.27;11.55;;;;;;;22.51;100.00;100486.08;1768193;80;21391;-56
2021/06/21 05:02:07;;;;;;;35.58;13.70;;;;;;;22.68;100.00;100490.53;1750882;80;39299;-56
2021/06/21 05:04:34;;;;;;;51.70;15.55;;;;;;;22.88;100.00;100486.84;1773556;80;21111;-56
2021/06/21 05:07:00;;;;;;;64.07;17.95;;;;;;;23.02;100.00;100484.20;1772747;79;21047;-56
2021/06/21 05:09:28;;;;;;;56.88;17.90;;;;;;;23.11;98.96;100486.59;1761392;79;20999;-55
2021/06/21 05:11:54;;;;;;;53.52;17.95;;;;;;;23.18;97.88;100493.20;1738584;80;21058;-55
2021/06/21 05:14:21;;;;;;;41.25;17.50;;;;;;;23.27;96.56;100487.91;1773728;80;21374;-56
2021/06/21 05:16:48;;;;;;;30.27;10.50;;;;;;;23.31;95.78;100492.08;1769372;79;21438;-59
2021/06/21 05:19:15;;;;;;;20.40;8.35;;;;;;;23.34;95.17;100489.57;1774186;80;21090;-61
2021/06/21 05:21:41;;;;;;;28.30;8.23;;;;;;;23.35;95.17;100499.02;1757515;79;20953;-62
2021/06/21 05:24:08;;;;;;;23.25;8.55;;;;;;;23.39;95.13;100505.04;1769239;79;21087;-61
2021/06/21 05:26:35;;;;;;;27.22;7.50;;;;;;;23.39;94.94;100497.72;1742989;81;21059;-61
2021/06/21 05:29:01;;;;;;;21.60;6.25;;;;;;;23.43;95.45;100499.14;1761325;79;20972;-60
2021/06/21 05:31:28;;;;;;;19.50;5.60;;;;;;;23.52;95.33;100502.02;1730646;81;21016;-61
2021/06/21 05:33:56;;;;;;;29.52;6.42;;;;;;;23.64;95.13;100503.61;1744842;81;20983;-61
2021/06/21 05:36:25;;;;;;;21.73;5.35;;;;;;;23.81;94.31;100512.94;1766139;80;21036;-56
2021/06/21 05:38:51;;;;;;;20.17;5.22;;;;;;;23.94;93.59;100508.52;1761010;79;21454;-56
2021/06/21 05:41:17;;;;;;;25.65;4.37;;;;;;;24.10;92.93;100511.19;1766841;80;21470;-55
2021/06/21 05:43:44;;;;;;;22.13;5.65;;;;;;;24.24;91.87;100520.31;1761621;79;21463;-55
2021/06/21 05:46:10;;;;;;;24.30;5.80;;;;;;;24.31;90.38;100524.17;1764917;80;20952;-55
2021/06/21 05:48:38;;;;;;;23.10;6.12;;;;;;;24.34;90.14;100524.39;1764104;79;21039;-57
2021/06/21 05:51:04;;;;;;;26.33;6.30;;;;;;;24.43;90.12;100526.74;1765058;80;21019;-57
2021/06/21 05:53:31;;;;;;;24.23;6.40;;;;;;;24.55;89.11;100532.37;1769240;79;20965;-57
2021/06/21 05:55:58;;;;;;;18.05;7.58;;;;;;;24.57;87.95;100520.75;1770546;79;20952;-57
2021/06/21 05:58:24;;;;;;;15.63;7.10;;;;;;;24.55;87.57;100526.89;1765492;80;21137;-57
2021/06/21 06:00:51;;;;;;;12.85;5.65;;;;;;;24.56;86.95;100529.14;1767957;80;21130;-57
2021/06/21 06:03:18;;;;;;;19.73;6.60;;;;;;;24.51;86.69;100528.22;1765270;79;21529;-57
2021/06/21 06:05:45;;;;;;;23.25;9.85;;;;;;;24.53;87.44;100526.18;1767546;79;21012;-57
2021/06/21 06:08:13;;;;;;;21.25;9.05;;;;;;;24.59;87.18;100526.09;1765365;79;21008;-57
2021/06/21 06:10:41;;;;;;;27.48;9.15;;;;;;;24.60;87.05;100519.07;1767486;79;21446;-57
2021/06/21 06:13:08;;;;;;;19.73;9.23;;;;;;;24.68;87.15;100527.06;1766012;80;21748;-57
2021/06/21 06:15:34;;;;;;;23.92;9.18;;;;;;;24.72;86.69;100524.38;1767520;80;21347;-57
2021/06/21 06:18:01;;;;;;;18.52;9.48;;;;;;;24.69;86.54;100521.41;1768059;79;21348;-57
2021/06/21 06:20:28;;;;;;;19.62;8.60;;;;;;;24.63;86.92;100520.66;1766433;79;21030;-57
2021/06/21 06:22:54;;;;;;;14.40;8.28;;;;;;;24.59;86.83;100512.39;1765401;79;21058;-57
2021/06/21 06:25:23;;;;;;;22.70;9.53;;;;;;;24.50;87.01;100510.05;1771573;79;21746;-57
2021/06/21 06:27:49;;;;;;;17.30;8.65;;;;;;;24.44;87.33;100520.25;1750269;80;20941;-57
2021/06/21 06:30:17;;;;;;;25.43;9.53;;;;;;;24.35;87.10;100517.02;1760701;80;20916;-57
2021/06/21 06:32:46;;;;;;;15.13;9.60;;;;;;;24.26;87.70;100515.55;1733163;81;21426;-57
2021/06/21 06:35:14;;;;;;;22.20;10.90;;;;;;;24.23;88.32;100525.44;1741905;80;20897;-57
2021/06/21 06:37:42;;;;;;;29.50;11.55;;;;;;;24.18;89.18;100509.44;1720370;80;21545;-57
2021/06/21 06:40:10;;;;;;;23.87;11.60;;;;;;;24.16;89.49;100507.85;1743675;80;21443;-57
2021/06/21 06:42:36;;;;;;;19.92;11.33;;;;;;;24.07;89.44;100499.17;1765961;79;21453;-57
2021/06/21 06:45:04;;;;;;;29.18;11.68;;;;;;;23.97;90.45;100493.69;1764370;79;21040;-57
2021/06/21 06:47:32;;;;;;;34.00;13.13;;;;;;;23.96;91.04;100502.39;1767676;80;21503;-57
2021/06/21 06:49:59;;;;;;;30.55;11.70;;;;;;;23.96;91.46;100506.50;1766578;80;21425;-56
2021/06/21 06:52:25;;;;;;;28.87;11.83;;;;;;;23.96;90.99;100516.08;1768529;80;21025;-57
2021/06/21 06:57:39;;;;;;;24.25;11.33;;;;;;;24.05;91.28;100513.52;1768522;80;20975;-57
2021/06/21 07:00:08;;;;;;;27.87;11.12;;;;;;;24.06;90.91;100515.24;1768218;80;20953;-57
2021/06/21 07:02:34;;;;;;;19.48;10.40;;;;;;;23.98;90.14;100516.79;1767725;80;33843;-57
2021/06/21 07:05:05;;;;;;;19.87;9.43;;;;;;;23.83;90.28;100525.13;1769908;79;20947;-57
2021/06/21 07:07:31;;;;;;;18.57;10.82;;;;;;;23.67;90.68;100527.94;1765730;80;20928;-57
2021/06/21 07:09:58;;;;;;;22.70;10.60;;;;;;;23.58;91.33;100535.66;1762223;79;20991;-57
2021/06/21 07:12:25;;;;;;;23.30;10.70;;;;;;;23.53;91.71;100539.31;1764705;80;20902;-57
2021/06/21 07:14:52;;;;;;;22.48;9.58;;;;;;;23.53;92.34;100538.81;1774325;79;22355;-57
2021/06/21 07:17:19;;;;;;;20.43;9.65;;;;;;;23.59;91.86;100541.48;1778999;79;20999;-57
2021/06/21 07:19:47;;;;;;;16.85;9.28;;;;;;;23.63;91.78;100540.19;1764323;79;21009;-57
2021/06/21 07:22:13;;;;;;;15.70;8.98;;;;;;;23.74;91.55;100548.23;1764563;79;21075;-57
2021/06/21 07:24:40;;;;;;;17.73;8.33;;;;;;;23.87;91.12;100545.23;1767436;79;21081;-57
2021/06/21 07:27:07;;;;;;;14.98;8.60;;;;;;;24.01;90.72;100546.67;1732048;80;21096;-57
2021/06/21 07:29:34;;;;;;;13.30;8.70;;;;;;;24.08;90.42;100546.92;1702715;82;21013;-57
2021/06/21 07:32:02;;;;;;;18.55;8.03;;;;;;;24.16;89.77;100544.83;1739582;81;20999;-57
2021/06/21 07:34:29;;;;;;;13.13;8.20;;;;;;;24.26;89.33;100540.20;1733875;81;21037;-57
2021/06/21 07:36:55;;;;;;;13.95;8.20;;;;;;;24.36;88.40;100546.14;1733287;81;21541;-57
2021/06/21 07:39:22;;;;;;;14.60;8.95;;;;;;;24.41;87.93;100543.81;1713237;82;21112;-57
2021/06/21 07:41:49;;;;;;;20.55;8.10;;;;;;;24.38;87.37;100544.11;1737215;81;20992;-57
2021/06/21 07:44:16;;;;;;;25.00;8.98;;;;;;;24.36;86.98;100539.30;1734487;81;21027;-57
2021/06/21 07:46:42;;;;;;;19.70;8.28;;;;;;;24.32;86.95;100540.97;1709694;82;21012;-57
2021/06/21 07:49:09;;;;;;;20.90;8.80;;;;;;;24.34;87.26;100545.42;1734958;81;21492;-57
2021/06/21 07:51:35;;;;;;;16.82;8.38;;;;;;;24.36;86.91;100556.61;1734318;81;21109;-57
2021/06/21 07:54:02;;;;;;;16.17;8.75;;;;;;;24.35;86.85;100559.48;1725194;81;20972;-57
2021/06/21 07:56:28;;;;;;;10.70;8.30;;;;;;;24.34;86.76;100557.75;1717995;81;21005;-57
2021/06/21 07:58:55;;;;;;;13.98;8.70;;;;;;;24.34;86.73;100561.86;1723406;81;21083;-57
2021/06/21 08:01:23;;;;;;;13.45;8.60;;;;;;;24.41;86.34;100558.87;1738340;81;21496;-56
2021/06/21 08:03:49;;;;;;;16.12;9.53;;;;;;;24.45;85.76;100561.70;1735981;81;21904;-57
2021/06/21 08:06:16;;;;;;;14.53;9.53;;;;;;;24.44;85.38;100561.34;1734306;81;21812;-56
2021/06/21 08:08:44;;;;;;;21.42;10.60;;;;;;;24.39;85.91;100559.05;1704146;82;20987;-57
2021/06/21 08:11:11;;;;;;;14.60;8.83;;;;;;;24.38;86.27;100568.77;1706643;82;21021;-58
2021/06/21 08:13:38;;;;;;;14.40;9.10;;;;;;;24.37;86.19;100577.51;1735070;81;20988;-57
2021/06/21 08:16:05;;;;;;;18.00;9.35;;;;;;;24.36;85.74;100571.67;1728333;81;21729;-57
2021/06/21 08:18:32;;;;;;;16.70;10.18;;;;;;;24.36;86.11;100566.69;1704967;82;21437;-57
2021/06/21 08:20:59;;;;;;;16.10;11.05;;;;;;;24.43;86.21;100574.17;1739905;81;21410;-57
2021/06/21 08:23:25;;;;;;;19.42;11.10;;;;;;;24.49;86.16;100565.86;1741005;81;20985;-57
2021/06/21 08:25:52;;;;;;;19.12;10.98;;;;;;;24.56;86.18;100570.25;1738684;79;21090;-57
2021/06/21 08:28:19;;;;;;;19.57;11.90;;;;;;;24.66;85.63;100583.91;1769767;79;20999;-57
2021/06/21 08:30:46;;;;;;;17.67;12.18;;;;;;;24.72;85.25;100584.67;1755906;79;20947;-57
2021/06/21 08:33:13;;;;;;;21.65;13.10;;;;;;;24.78;85.11;100582.72;1769546;79;20921;-57
2021/06/21 08:35:39;;;;;;;24.77;11.97;;;;;;;24.87;84.42;100577.72;1763745;80;21005;-57
2021/06/21 08:38:06;;;;;;;17.07;10.20;;;;;;;24.96;84.20;100580.55;1768828;80;20964;-57
2021/06/21 08:40:36;;;;;;;17.35;9.75;;;;;;;25.07;83.67;100583.08;1770412;79;21166;-57
2021/06/21 08:43:03;;;;;;;15.30;9.38;;;;;;;25.18;82.81;100590.23;1760674;80;22220;-57
2021/06/21 08:45:33;;;;;;;46.95;23.18;;;;;;;25.29;82.11;100587.78;1768073;79;21517;-57
2021/06/21 08:47:59;;;;;;;47.35;22.93;;;;;;;25.40;81.11;100591.69;1765908;79;21059;-57
2021/06/21 08:50:26;;;;;;;28.40;17.23;;;;;;;25.50;80.46;100584.80;1770857;79;21131;-57
2021/06/21 08:52:53;;;;;;;13.60;10.50;;;;;;;25.62;79.79;100584.05;1766848;79;22459;-57
2021/06/21 08:55:20;;;;;;;12.68;10.10;;;;;;;25.77;79.16;100587.11;1760426;80;21462;-57
2021/06/21 08:57:47;;;;;;;20.43;11.00;;;;;;;25.85;78.50;100588.54;1765004;79;21634;-57
2021/06/21 09:00:17;;;;;;;15.40;10.18;;;;;;;25.85;77.90;100590.44;1767034;80;21059;-57
2021/06/21 09:02:47;;;;;;;14.53;10.60;;;;;;;25.87;77.73;100587.90;1767378;79;34730;-57
2021/06/21 09:05:14;;;;;;;16.42;10.78;;;;;;;25.92;77.54;100590.15;1758898;80;21683;-57
2021/06/21 09:07:40;;;;;;;15.50;10.48;;;;;;;25.98;77.53;100590.03;1768188;80;20952;-57
2021/06/21 09:10:25;;;;;;;16.32;10.78;;;;;;;26.02;77.16;100599.17;1768626;79;21026;-57
2021/06/21 09:13:14;;;;;;;17.35;10.82;;;;;;;26.02;76.82;100599.17;1763102;79;20964;-57
2021/06/21 09:15:53;;;;;;;19.07;9.85;;;;;;;25.96;76.91;100594.30;1767036;80;21076;-56
2021/06/21 09:18:35;;;;;;;14.53;9.48;;;;;;;25.94;76.87;100595.49;1766197;79;21031;-57
2021/06/21 09:21:27;;;;;;;18.48;10.32;;;;;;;25.85;76.74;100597.30;1770046;79;20907;-57
2021/06/21 09:23:56;;;;;;;19.35;10.48;;;;;;;25.83;76.97;100592.48;1762318;79;20877;-57
2021/06/21 09:26:29;;;;;;;15.58;10.75;;;;;;;25.89;77.25;100588.60;1771663;79;21351;-57
2021/06/21 09:28:58;;;;;;;21.20;10.93;;;;;;;25.98;77.03;100592.28;1769641;79;20932;-57
2021/06/21 09:31:26;;;;;;;16.73;11.10;;;;;;;26.06;76.84;100600.23;1771931;79;21070;-57
2021/06/21 09:33:53;;;;;;;22.40;10.15;;;;;;;26.14;76.74;100605.28;1744632;81;21034;-56
2021/06/21 09:36:29;;;;;;;21.15;10.82;;;;;;;26.26;76.27;100605.03;1739979;81;20959;-56
2021/06/21 09:39:17;;;;;;;17.85;10.95;;;;;;;26.35;75.90;100605.47;1753761;80;21595;-63
2021/06/21 09:42:22;;;;;;;18.82;10.23;;;;;;;26.46;75.22;100613.95;1766210;79;21917;-63
2021/06/21 09:44:57;;;;;;;16.90;12.75;;;;;;;26.51;74.59;100612.07;1734055;81;21915;-62
2021/06/21 09:47:30;;;;;;;24.57;13.45;;;;;;;26.52;74.51;100605.05;1770287;79;21127;-62
2021/06/21 09:50:24;;;;;;;20.72;11.88;;;;;;;26.57;74.41;100604.05;1769563;79;20921;-62
2021/06/21 09:52:55;;;;;;;17.48;12.00;;;;;;;26.65;73.93;100606.52;1762374;79;21533;-62
2021/06/21 09:55:40;;;;;;;20.70;11.50;;;;;;;26.63;73.83;100603.91;1773375;79;21480;-62
2021/06/21 09:58:21;;;;;;;18.52;12.75;;;;;;;26.58;73.57;100607.14;1739380;80;21163;-63
2021/06/21 10:00:50;;;;;;;20.40;13.28;;;;;;;26.53;73.57;100610.90;1762105;80;21472;-62
2021/06/21 10:03:22;;;;;;;16.65;11.30;;;;;;;26.50;73.44;100604.85;1738820;80;58920;-62
2021/06/21 10:06:08;;;;;;;20.68;11.85;;;;;;;26.46;73.67;100609.30;1766132;80;21405;-64
2021/06/21 10:08:52;;;;;;;17.30;12.45;;;;;;;26.46;73.90;100611.20;1763572;80;21422;-65
2021/06/21 10:11:41;;;;;;;22.70;12.10;;;;;;;26.48;73.75;100602.78;1764707;80;21766;-62
2021/06/21 10:14:05;;;;;;;;;;;;;;;26.46;73.80;100605.18;1765540;80;21462;-62
2021/06/21 10:16:32;;;;;;;27.70;12.35;;;;;;;26.42;73.84;100608.44;1752689;81;20156;-62
2021/06/21 10:18:59;;;;;;;24.23;11.45;;;;;;;26.36;74.43;100602.19;1748630;81;20991;-62
2021/06/21 10:21:26;;;;;;;20.45;11.10;;;;;;;26.27;74.76;100596.65;1741156;81;20995;-62
2021/06/21 10:23:52;;;;;;;18.85;10.03;;;;;;;26.15;75.24;100604.75;1766749;80;21127;-61
2021/06/21 10:26:20;;;;;;;23.27;10.45;;;;;;;26.05;75.66;100602.63;1765693;79;21015;-62
2021/06/21 10:28:48;;;;;;;22.58;11.10;;;;;;;25.92;76.06;100605.25;1767673;79;21529;-63
2021/06/21 10:31:14;;;;;;;21.33;10.08;;;;;;;25.81;76.60;100601.39;1770506;80;21379;-62
2021/06/21 10:33:40;;;;;;;31.55;10.35;;;;;;;25.69;77.46;100592.00;1767810;80;21462;-61
2021/06/21 10:36:07;;;;;;;26.77;10.58;;;;;;;25.59;78.05;100599.47;1766506;79;21570;-61
2021/06/21 10:38:34;;;;;;;24.63;10.00;;;;;;;25.49;78.40;100600.03;1767792;80;21055;-61
2021/06/21 10:41:05;;;;;;;29.35;10.00;;;;;;;25.37;79.17;100597.49;1769594;79;20980;-61
2021/06/21 10:43:45;;;;;;;32.28;10.53;;;;;;;25.27;79.75;100598.92;1767317;80;21627;-61
2021/06/21 10:46:31;;;;;;;35.83;11.55;;;;;;;25.23;80.38;100606.23;1763685;80;21031;-61
2021/06/21 10:49:06;;;;;;;33.45;14.07;;;;;;;25.14;80.84;100603.41;1764280;80;21085;-61
2021/06/21 10:51:39;;;;;;;34.88;15.45;;;;;;;25.03;81.52;100604.97;1765500;80;21415;-61
2021/06/21 10:54:07;;;;;;;42.00;16.10;;;;;;;24.96;82.26;100613.45;1748843;80;20968;-60
2021/06/21 10:56:48;;;;;;;42.60;17.60;;;;;;;24.88;82.84;100609.61;1774840;79;21117;-61
2021/06/21 10:59:16;;;;;;;34.67;15.58;;;;;;;24.82;83.11;100610.19;1773541;79;21494;-60
2021/06/21 11:01:49;;;;;;;42.98;18.82;;;;;;;24.76;83.90;100608.05;1765748;80;36197;-61
2021/06/21 11:04:39;;;;;;;41.53;16.02;;;;;;;24.77;84.24;100605.67;1760873;80;21113;-60
2021/06/21 11:07:16;;;;;;;38.17;16.12;;;;;;;24.82;84.46;100598.38;1764255;79;20917;-59
2021/06/21 11:09:45;;;;;;;36.00;13.70;;;;;;;24.91;83.76;100603.46;1764925;80;20912;-59
2021/06/21 11:12:33;;;;;;;42.27;14.23;;;;;;;24.96;83.38;100605.23;1764837;80;21598;-60
2021/06/21 11:15:08;;;;;;;39.20;13.78;;;;;;;24.97;83.28;100599.58;1772677;79;21134;-60
2021/06/21 11:17:56;;;;;;;34.33;11.38;;;;;;;24.97;83.19;100604.22;1777387;80;20948;-60
2021/06/21 11:20:39;;;;;;;38.78;10.68;;;;;;;24.89;82.68;100601.73;1736684;80;21041;-59
2021/06/21 11:23:10;;;;;;;29.87;10.70;;;;;;;24.78;83.18;100600.54;1762941;79;20989;-60
2021/06/21 11:25:43;;;;;;;31.15;10.35;;;;;;;24.68;83.62;100602.44;1763390;80;21048;-59
2021/06/21 11:28:40;;;;;;;45.38;11.88;;;;;;;24.59;84.40;100599.56;1756753;80;21085;-59